createdAt,value
2022-12-09T00:01:31.942Z,1.39
2022-12-09T00:04:05.710Z,0.34
2022-12-09T00:06:35.248Z,1.48
2022-12-09T00:09:07.470Z,-0.81
2022-12-09T00:11:41.129Z,1.56
2022-12-09T00:14:14.057Z,1.22
2022-12-09T00:16:43.255Z,0.71
2022-12-09T00:19:16.897Z,-0.75
2022-12-09T00:21:48.817Z,-2.08
2022-12-09T00:24:28.284Z,-2.42
2022-12-09T00:26:58.753Z,0.04
2022-12-09T00:29:28.732Z,1.59
2022-12-09T00:32:00.382Z,0.34
2022-12-09T00:34:37.661Z,-0.07
2022-12-09T00:37:12.176Z,-1.19
2022-12-09T00:39:46.977Z,-1.82
2022-12-09T00:42:18.753Z,0.26
2022-12-09T00:44:51.170Z,0.04
2022-12-09T00:47:24.753Z,1.32
2022-12-09T00:49:56.078Z,1.29
2022-12-09T00:52:28.354Z,1.49
2022-12-09T00:55:01.028Z,0.16
2022-12-09T00:57:42.560Z,-1.69
2022-12-09T01:00:13.321Z,0.29
2022-12-09T01:02:43.514Z,-2.14
2022-12-09T01:05:15.562Z,0.35
2022-12-09T01:07:46.101Z,0.14
2022-12-09T01:10:21.339Z,-1.35
2022-12-09T01:12:52.648Z,-0.81
2022-12-09T01:15:28.374Z,-1.65
2022-12-09T01:18:00.206Z,-1.27
2022-12-09T01:20:32.533Z,-0.64
2022-12-09T01:23:01.802Z,-1.64
2022-12-09T01:25:35.432Z,0.02
2022-12-09T01:28:06.188Z,-0.08
2022-12-09T01:30:39.641Z,-1.52
2022-12-09T01:33:11.247Z,-1.72
2022-12-09T01:35:41.699Z,0.40
2022-12-09T01:38:10.148Z,0.63
2022-12-09T01:40:47.091Z,-0.11
2022-12-09T01:43:21.523Z,-2.24
2022-12-09T01:45:51.849Z,-0.43
2022-12-09T01:48:22.586Z,-1.51
2022-12-09T01:50:55.517Z,0.66
2022-12-09T01:53:29.615Z,0.29
2022-12-09T01:56:07.098Z,-0.32
2022-12-09T01:58:36.230Z,-0.26
2022-12-09T02:01:04.855Z,0.87
2022-12-09T02:03:33.116Z,1.01
2022-12-09T02:06:01.445Z,1.91
2022-12-09T02:08:34.043Z,0.02
2022-12-09T02:11:16.640Z,1.78
2022-12-09T02:13:58.466Z,0.37
2022-12-09T02:16:34.441Z,-0.47
2022-12-09T02:19:23.300Z,-2.11
2022-12-09T02:22:01.758Z,-0.72
2022-12-09T02:24:47.098Z,-1.03
2022-12-09T02:27:25.344Z,-2.17
2022-12-09T02:30:09.657Z,-1.37
2022-12-09T02:33:12.709Z,-0.75
2022-12-09T02:35:47.697Z,1.76
2022-12-09T02:38:24.582Z,0.80
2022-12-09T02:41:03.377Z,-1.09
2022-12-09T02:43:37.466Z,1.28
2022-12-09T02:46:17.499Z,1.89
2022-12-09T02:48:54.133Z,1.69
2022-12-09T02:51:37.886Z,1.76
2022-12-09T02:54:12.490Z,0.19
2022-12-09T02:56:43.606Z,0.92
2022-12-09T02:59:15.829Z,0.92
2022-12-09T03:02:02.277Z,-0.59
2022-12-09T03:04:33.571Z,1.59
2022-12-09T03:07:20.629Z,0.84
2022-12-09T03:09:57.344Z,1.76
2022-12-09T03:12:37.403Z,0.93
2022-12-09T03:15:11.970Z,1.73
2022-12-09T03:17:47.285Z,1.83
2022-12-09T03:20:21.284Z,0.65
2022-12-09T03:22:53.841Z,1.75
2022-12-09T03:25:27.933Z,-0.23
2022-12-09T03:28:06.160Z,-0.33
2022-12-09T03:30:39.698Z,1.38
2022-12-09T03:33:10.402Z,0.02
2022-12-09T03:35:44.595Z,1.87
2022-12-09T03:38:20.493Z,1.96
2022-12-09T03:40:56.406Z,1.25
2022-12-09T03:43:35.976Z,1.19
2022-12-09T03:46:09.586Z,-0.98
2022-12-09T03:48:41.349Z,-0.01
2022-12-09T03:51:19.136Z,1.67
2022-12-09T03:54:02.647Z,-1.62
2022-12-09T03:56:39.181Z,-2.42
2022-12-09T03:59:13.794Z,-0.07
2022-12-09T04:01:51.738Z,-0.21
2022-12-09T04:04:23.586Z,-0.81
2022-12-09T04:06:55.835Z,1.62
2022-12-09T04:09:31.440Z,0.65
2022-12-09T04:12:07.760Z,1.96
2022-12-09T04:14:37.094Z,-0.21
2022-12-09T04:17:26.482Z,0.58
2022-12-09T04:19:54.532Z,0.48
2022-12-09T04:22:23.515Z,0.12
2022-12-09T04:24:57.936Z,-0.76
2022-12-09T04:27:26.918Z,-0.46
2022-12-09T04:29:55.468Z,1.84
2022-12-09T04:32:23.944Z,-1.06
2022-12-09T04:34:52.312Z,0.35
2022-12-09T04:37:20.669Z,1.69
2022-12-09T04:39:48.669Z,1.50
2022-12-09T04:42:18.929Z,1.93
2022-12-09T04:44:48.128Z,0.96
2022-12-09T04:47:17.271Z,0.61
2022-12-09T04:49:46.516Z,1.00
2022-12-09T04:52:26.358Z,0.96
2022-12-09T04:54:56.559Z,-0.28
2022-12-09T04:57:28.501Z,0.93
2022-12-09T05:00:03.111Z,-1.22
2022-12-09T05:02:40.455Z,0.28
2022-12-09T05:05:10.859Z,0.18
2022-12-09T05:07:42.295Z,-1.95
2022-12-09T05:10:12.085Z,0.60
2022-12-09T05:12:45.915Z,-0.37
2022-12-09T05:15:18.982Z,-2.19
2022-12-09T05:17:49.083Z,-1.65
2022-12-09T05:20:19.944Z,0.26
2022-12-09T05:22:48.360Z,-1.23
2022-12-09T05:25:16.375Z,-0.40
2022-12-09T05:27:48.866Z,-0.75
2022-12-09T05:30:17.942Z,-0.52
2022-12-09T05:32:47.010Z,0.03
2022-12-09T05:35:15.383Z,0.39
2022-12-09T05:37:43.719Z,1.36
2022-12-09T05:40:12.492Z,-0.14
2022-12-09T05:42:42.157Z,-0.72
2022-12-09T05:45:13.268Z,1.26
2022-12-09T05:47:42.666Z,1.24
2022-12-09T05:50:13.888Z,1.20
2022-12-09T05:52:45.003Z,-0.82
2022-12-09T05:55:14.195Z,-2.61
2022-12-09T05:57:47.670Z,-1.45
2022-12-09T06:00:23.241Z,0.98
2022-12-09T06:02:53.302Z,-0.38
2022-12-09T06:05:37.236Z,0.87
2022-12-09T06:08:10.039Z,-1.75
2022-12-09T06:10:44.200Z,-1.74
2022-12-09T06:13:27.352Z,-1.37
2022-12-09T06:16:13.807Z,-1.40
2022-12-09T06:18:47.751Z,-1.22
2022-12-09T06:21:19.063Z,0.63
2022-12-09T06:23:48.330Z,0.55
2022-12-09T06:26:19.093Z,-0.97
2022-12-09T06:28:51.462Z,-0.39
2022-12-09T06:31:43.519Z,-1.82
2022-12-09T06:37:02.105Z,-0.77
2022-12-09T06:39:32.025Z,-3.31
2022-12-09T06:42:06.845Z,-0.81
2022-12-09T06:44:40.946Z,-0.94
2022-12-09T06:47:13.986Z,-1.07
2022-12-09T06:49:48.776Z,-0.89
2022-12-09T06:52:20.831Z,-2.66
2022-12-09T06:54:51.168Z,-1.04
2022-12-09T06:57:23.385Z,-1.08
2022-12-09T06:59:54.460Z,-3.19
2022-12-09T07:02:34.064Z,0.53
2022-12-09T07:05:08.168Z,0.50
2022-12-09T07:07:37.513Z,0.46
2022-12-09T07:10:15.219Z,-2.44
2022-12-09T07:12:44.143Z,-1.94
2022-12-09T07:15:14.090Z,0.41
2022-12-09T07:17:45.634Z,-2.62
2022-12-09T07:20:17.876Z,-0.37
2022-12-09T07:22:53.845Z,-1.23
2022-12-09T07:25:22.201Z,-3.16
2022-12-09T07:27:51.787Z,-1.60
2022-12-09T07:30:22.684Z,-3.20
2022-12-09T07:32:58.147Z,0.20
2022-12-09T07:35:27.620Z,0.35
2022-12-09T07:37:58.048Z,-1.14
2022-12-09T07:40:27.233Z,-3.18
2022-12-09T07:43:00.783Z,-0.86
2022-12-09T07:45:30.228Z,-1.72
2022-12-09T07:48:01.536Z,-1.78
2022-12-09T07:50:33.864Z,-0.60
2022-12-09T07:53:02.685Z,-0.41
2022-12-09T07:55:36.319Z,-2.56
2022-12-09T07:58:05.737Z,-1.58
2022-12-09T08:00:38.476Z,1.58
2022-12-09T08:03:08.142Z,-0.95
2022-12-09T08:05:36.986Z,1.06
2022-12-09T08:08:05.822Z,0.72
2022-12-09T08:10:36.240Z,1.33
2022-12-09T08:13:06.760Z,0.84
2022-12-09T08:15:35.215Z,0.30
2022-12-09T08:18:04.779Z,2.27
2022-12-09T08:20:34.685Z,1.12
2022-12-09T08:23:03.508Z,2.23
2022-12-09T08:25:31.678Z,0.89
2022-12-09T08:28:00.295Z,0.73
2022-12-09T08:30:28.790Z,0.42
2022-12-09T08:32:58.052Z,1.53
2022-12-09T08:35:29.973Z,-1.39
2022-12-09T08:37:59.500Z,-0.94
2022-12-09T08:40:27.964Z,2.30
2022-12-09T08:42:57.380Z,0.89
2022-12-09T08:45:26.195Z,0.13
2022-12-09T08:47:57.288Z,2.47
2022-12-09T08:50:26.449Z,2.10
2022-12-09T08:52:56.858Z,2.51
2022-12-09T08:55:27.119Z,0.66
2022-12-09T08:57:56.042Z,2.84
2022-12-09T09:00:26.045Z,3.84
2022-12-09T09:02:54.806Z,4.79
2022-12-09T09:05:23.203Z,6.02
2022-12-09T09:07:51.425Z,6.53
2022-12-09T09:10:19.792Z,7.63
2022-12-09T09:12:49.509Z,6.25
2022-12-09T09:15:18.081Z,8.20
2022-12-09T09:17:51.243Z,7.87
2022-12-09T09:20:20.056Z,8.12
2022-12-09T09:22:48.416Z,8.28
2022-12-09T09:25:16.995Z,6.40
2022-12-09T09:27:45.308Z,7.76
2022-12-09T09:30:15.968Z,5.83
2022-12-09T09:32:44.617Z,6.99
2022-12-09T09:35:12.889Z,6.39
2022-12-09T09:40:43.102Z,5.06
2022-12-09T09:43:17.582Z,5.71
2022-12-09T09:45:47.974Z,3.80
2022-12-09T09:48:21.637Z,4.90
2022-12-09T09:50:55.066Z,5.08
2022-12-09T09:53:26.841Z,4.92
2022-12-09T09:56:00.035Z,4.23
2022-12-09T09:58:38.358Z,6.07
2022-12-09T10:01:13.423Z,7.58
2022-12-09T10:03:54.312Z,8.86
2022-12-09T10:06:32.186Z,9.19
2022-12-09T10:09:06.034Z,8.23
2022-12-09T10:11:41.975Z,9.58
2022-12-09T10:14:16.462Z,9.17
2022-12-09T10:17:02.284Z,9.51
2022-12-09T10:19:33.842Z,9.24
2022-12-09T10:22:12.912Z,6.93
2022-12-09T10:24:48.495Z,8.55
2022-12-09T10:27:29.106Z,10.42
2022-12-09T10:30:02.885Z,10.19
2022-12-09T10:32:36.595Z,8.03
2022-12-09T10:35:15.446Z,9.14
2022-12-09T10:37:44.548Z,7.02
2022-12-09T10:40:22.977Z,8.12
2022-12-09T10:43:10.950Z,10.13
2022-12-09T10:48:44.806Z,10.83
2022-12-09T10:51:18.614Z,10.27
2022-12-09T10:53:56.825Z,10.78
2022-12-09T10:56:34.260Z,10.67
2022-12-09T10:59:18.744Z,9.56
2022-12-09T11:01:53.045Z,9.19
2022-12-09T11:04:27.287Z,6.99
2022-12-09T11:07:00.248Z,7.23
2022-12-09T11:09:34.660Z,6.68
2022-12-09T11:12:05.680Z,7.67
2022-12-09T11:14:37.609Z,6.69
2022-12-09T11:17:16.505Z,5.22
2022-12-09T11:19:49.710Z,7.55
2022-12-09T11:22:28.509Z,7.71
2022-12-09T11:25:13.065Z,6.42
2022-12-09T11:27:44.073Z,5.27
2022-12-09T11:30:16.762Z,5.11
2022-12-09T11:33:02.237Z,9.68
2022-12-09T11:35:40.480Z,8.88
2022-12-09T11:38:22.489Z,8.90
2022-12-09T11:41:01.890Z,8.55
2022-12-09T11:43:41.529Z,9.47
2022-12-09T11:46:19.409Z,7.40
2022-12-09T11:48:54.810Z,7.96
2022-12-09T11:51:28.490Z,7.89
2022-12-09T11:54:03.646Z,8.61
2022-12-09T11:56:32.057Z,8.23
2022-12-09T11:59:04.406Z,7.94
2022-12-09T12:01:44.397Z,8.58
2022-12-09T12:04:16.375Z,8.69
2022-12-09T12:06:56.906Z,8.21
2022-12-09T12:09:41.536Z,8.83
2022-12-09T12:12:23.650Z,10.74
2022-12-09T12:14:58.564Z,9.70
2022-12-09T12:17:37.688Z,11.38
2022-12-09T12:20:14.547Z,9.39
2022-12-09T12:23:17.476Z,7.06
2022-12-09T12:25:55.939Z,6.77
2022-12-09T12:28:45.858Z,7.42
2022-12-09T12:31:27.226Z,5.84
2022-12-09T12:34:24.027Z,8.72
2022-12-09T12:37:02.099Z,8.78
2022-12-09T12:39:49.188Z,5.72
2022-12-09T12:42:31.281Z,7.37
2022-12-09T12:45:21.652Z,7.41
2022-12-09T12:47:56.468Z,6.96
2022-12-09T12:50:35.363Z,8.16
2022-12-09T12:53:13.364Z,7.43
2022-12-09T12:55:51.278Z,4.46
2022-12-09T12:58:34.634Z,7.83
2022-12-09T13:01:08.640Z,8.03
2022-12-09T13:03:53.040Z,5.48
2022-12-09T13:06:25.111Z,3.89
2022-12-09T13:09:02.695Z,7.27
2022-12-09T13:11:42.076Z,5.79
2022-12-09T13:14:17.183Z,6.68
2022-12-09T13:16:47.108Z,5.02
2022-12-09T13:19:20.132Z,5.15
2022-12-09T13:21:48.968Z,5.64
2022-12-09T13:24:31.101Z,5.38
2022-12-09T13:27:10.755Z,2.66
2022-12-09T13:29:45.225Z,3.03
2022-12-09T13:32:32.841Z,2.38
2022-12-09T13:35:08.021Z,1.65
2022-12-09T13:37:58.361Z,4.99
2022-12-09T13:40:42.018Z,0.66
2022-12-09T13:43:22.627Z,3.87
2022-12-09T13:45:55.136Z,2.23
2022-12-09T13:48:44.086Z,1.67
2022-12-09T13:51:13.533Z,3.71
2022-12-09T13:53:50.488Z,4.92
2022-12-09T13:56:26.963Z,4.67
2022-12-09T13:59:40.075Z,2.61
2022-12-09T14:02:23.387Z,0.93
2022-12-09T14:05:11.553Z,4.56
2022-12-09T14:07:44.024Z,2.39
2022-12-09T14:10:36.964Z,3.30
2022-12-09T14:13:22.729Z,0.81
2022-12-09T14:16:18.537Z,1.46
2022-12-09T14:18:46.884Z,3.29
2022-12-09T14:21:33.455Z,0.24
2022-12-09T14:24:36.842Z,4.45
2022-12-09T14:27:19.921Z,0.75
2022-12-09T14:29:51.985Z,1.93
2022-12-09T14:32:54.276Z,3.00
2022-12-09T14:35:28.958Z,2.74
2022-12-09T14:38:07.503Z,3.87
2022-12-09T14:40:57.840Z,2.74
2022-12-09T14:43:39.860Z,2.00
2022-12-09T14:46:21.664Z,3.67
2022-12-09T14:48:56.187Z,3.69
2022-12-09T14:51:26.577Z,3.61
2022-12-09T14:53:57.782Z,3.56
2022-12-09T14:56:26.728Z,3.49
2022-12-09T14:58:59.668Z,3.41
2022-12-09T15:01:27.613Z,3.14
2022-12-09T15:03:58.837Z,3.31
2022-12-09T15:06:28.241Z,3.24
2022-12-09T15:08:58.326Z,2.22
2022-12-09T15:11:31.221Z,3.14
2022-12-09T15:14:22.322Z,2.79
2022-12-09T15:16:51.114Z,2.96
2022-12-09T15:19:58.243Z,2.79
2022-12-09T15:22:21.803Z,2.84
2022-12-09T15:24:51.171Z,2.79
2022-12-09T15:27:21.483Z,2.73
2022-12-09T15:29:49.793Z,2.64
2022-12-09T15:32:21.734Z,1.56
2022-12-09T15:34:51.145Z,2.00
2022-12-09T15:37:23.086Z,2.36
2022-12-09T15:40:00.821Z,1.27
2022-12-09T15:42:30.805Z,2.17
2022-12-09T15:45:04.416Z,2.08
2022-12-09T15:47:39.761Z,1.97
2022-12-09T15:50:18.099Z,1.65
2022-12-09T15:52:50.923Z,1.08
2022-12-09T15:55:21.528Z,1.10
2022-12-09T15:57:51.621Z,1.58
2022-12-09T16:00:20.335Z,1.48
2022-12-09T16:02:50.206Z,1.37
2022-12-09T16:05:25.592Z,1.28
2022-12-09T16:07:58.719Z,0.69
2022-12-09T16:10:27.606Z,1.14
2022-12-09T16:13:07.831Z,0.63
2022-12-09T16:15:45.956Z,1.03
2022-12-09T16:18:18.081Z,0.94
2022-12-09T16:20:58.744Z,0.49
2022-12-09T16:23:27.374Z,0.79
2022-12-09T16:26:04.894Z,0.73
2022-12-09T16:28:35.116Z,0.66
2022-12-09T16:31:16.399Z,0.32
2022-12-09T16:33:49.300Z,0.49
2022-12-09T16:36:21.923Z,0.43
2022-12-09T16:39:32.159Z,-0.04
2022-12-09T16:42:02.926Z,0.32
2022-12-09T16:44:34.060Z,0.25
2022-12-09T16:47:13.991Z,-0.56
2022-12-09T16:49:45.373Z,0.14
2022-12-09T16:52:16.687Z,0.09
2022-12-09T16:54:51.031Z,-2.60
2022-12-09T16:57:23.565Z,-2.23
2022-12-09T16:59:57.076Z,-1.86
2022-12-09T17:03:01.186Z,-1.68
2022-12-09T17:05:31.279Z,-2.13
2022-12-09T17:08:04.279Z,-2.59
2022-12-09T17:10:36.656Z,-2.97
2022-12-09T17:13:24.643Z,-0.17
2022-12-09T17:16:02.949Z,-1.47
2022-12-09T17:18:32.532Z,0.02
2022-12-09T17:21:08.568Z,-3.61
2022-12-09T17:26:40.810Z,-0.03
2022-12-09T17:29:13.077Z,-0.01
2022-12-09T17:31:43.555Z,-2.45
2022-12-09T17:34:15.660Z,0.01
2022-12-09T17:36:50.236Z,-2.30
2022-12-09T17:39:27.830Z,0.01
2022-12-09T17:42:19.919Z,-2.35
2022-12-09T17:44:51.024Z,-2.40
2022-12-09T17:47:22.535Z,-2.61
2022-12-09T17:49:55.455Z,-1.84
2022-12-09T17:52:33.341Z,0.15
2022-12-09T17:55:08.368Z,-2.77
2022-12-09T17:57:39.464Z,-2.20
2022-12-09T18:00:13.086Z,-1.24
2022-12-09T18:02:46.315Z,0.31
2022-12-09T18:05:16.087Z,-2.27
2022-12-09T18:07:49.275Z,-1.90
2022-12-09T18:10:27.641Z,-2.99
2022-12-09T18:13:14.427Z,0.34
2022-12-09T18:15:43.380Z,-2.09
2022-12-09T18:18:13.743Z,-3.03
2022-12-09T18:20:43.761Z,-3.37
2022-12-09T18:23:14.583Z,0.44
2022-12-09T18:25:45.417Z,0.22
2022-12-09T18:28:30.722Z,-0.63
2022-12-09T18:31:00.349Z,-2.13
2022-12-09T18:33:30.236Z,-2.31
2022-12-09T18:36:01.966Z,-1.38
2022-12-09T18:38:34.935Z,-1.07
2022-12-09T18:44:14.073Z,-2.40
2022-12-09T18:50:25.689Z,-1.41
2022-12-09T18:53:00.041Z,-0.39
2022-12-09T19:48:34.853Z,-1.61
2022-12-09T22:04:37.992Z,-3.21
2022-12-09T22:32:49.197Z,-5.33
2022-12-09T22:37:42.539Z,-3.04
2022-12-09T22:41:45.345Z,-3.07
